sensor_id;sensor_type;location;lat;lon;timestamp;P1;durP1;ratioP1;P2;durP2;ratioP2
19113;SDS011;9689;51.052;13.772;2023-02-28T00:03:08;11.20;;;4.47;;
19113;SDS011;9689;51.052;13.772;2023-02-28T00:08:09;12.85;;;4.38;;
19113;SDS011;9689;51.052;13.772;2023-02-28T00:13:10;9.45;;;4.30;;
19113;SDS011;9689;51.052;13.772;2023-02-28T00:18:12;7.78;;;4.43;;
19113;SDS011;9689;51.052;13.772;2023-02-28T00:23:13;16.30;;;4.85;;
19113;SDS011;9689;51.052;13.772;2023-02-28T00:28:13;10.02;;;3.95;;
19113;SDS011;9689;51.052;13.772;2023-02-28T00:33:15;7.85;;;4.35;;
19113;SDS011;9689;51.052;13.772;2023-02-28T00:38:17;12.45;;;4.30;;
19113;SDS011;9689;51.052;13.772;2023-02-28T00:43:17;10.48;;;4.90;;
19113;SDS011;9689;51.052;13.772;2023-02-28T00:48:19;12.15;;;5.63;;
19113;SDS011;9689;51.052;13.772;2023-02-28T00:53:20;9.80;;;5.00;;
19113;SDS011;9689;51.052;13.772;2023-02-28T00:58:21;10.07;;;5.10;;
19113;SDS011;9689;51.052;13.772;2023-02-28T01:03:24;13.98;;;4.88;;
19113;SDS011;9689;51.052;13.772;2023-02-28T01:08:25;11.90;;;5.15;;
19113;SDS011;9689;51.052;13.772;2023-02-28T01:13:26;10.75;;;4.57;;
19113;SDS011;9689;51.052;13.772;2023-02-28T01:18:28;13.07;;;5.45;;
19113;SDS011;9689;51.052;13.772;2023-02-28T01:23:30;11.80;;;4.53;;
19113;SDS011;9689;51.052;13.772;2023-02-28T01:28:31;10.55;;;5.07;;
19113;SDS011;9689;51.052;13.772;2023-02-28T01:33:33;10.32;;;5.10;;
19113;SDS011;9689;51.052;13.772;2023-02-28T01:38:34;11.27;;;5.03;;
19113;SDS011;9689;51.052;13.772;2023-02-28T01:49:01;9.35;;;4.85;;
19113;SDS011;9689;51.052;13.772;2023-02-28T01:54:07;11.95;;;5.00;;
19113;SDS011;9689;51.052;13.772;2023-02-28T01:59:13;11.10;;;5.13;;
19113;SDS011;9689;51.052;13.772;2023-02-28T02:04:20;11.38;;;4.70;;
19113;SDS011;9689;51.052;13.772;2023-02-28T02:09:23;14.20;;;4.60;;
19113;SDS011;9689;51.052;13.772;2023-02-28T02:14:29;9.48;;;4.55;;
19113;SDS011;9689;51.052;13.772;2023-02-28T02:25:26;11.30;;;5.07;;
19113;SDS011;9689;51.052;13.772;2023-02-28T02:30:35;13.48;;;5.55;;
19113;SDS011;9689;51.052;13.772;2023-02-28T02:36:02;14.07;;;5.72;;
19113;SDS011;9689;51.052;13.772;2023-02-28T02:41:08;11.27;;;5.57;;
19113;SDS011;9689;51.052;13.772;2023-02-28T02:46:16;16.25;;;5.88;;
19113;SDS011;9689;51.052;13.772;2023-02-28T02:51:21;10.90;;;5.32;;
19113;SDS011;9689;51.052;13.772;2023-02-28T02:56:26;13.15;;;5.90;;
19113;SDS011;9689;51.052;13.772;2023-02-28T03:01:29;19.92;;;5.97;;
19113;SDS011;9689;51.052;13.772;2023-02-28T03:06:33;10.57;;;5.75;;
19113;SDS011;9689;51.052;13.772;2023-02-28T03:11:35;10.82;;;5.65;;
19113;SDS011;9689;51.052;13.772;2023-02-28T03:16:42;14.15;;;6.13;;
19113;SDS011;9689;51.052;13.772;2023-02-28T03:21:56;15.00;;;7.00;;
19113;SDS011;9689;51.052;13.772;2023-02-28T03:27:09;11.05;;;5.95;;
19113;SDS011;9689;51.052;13.772;2023-02-28T03:32:16;17.65;;;6.88;;
19113;SDS011;9689;51.052;13.772;2023-02-28T03:37:23;17.88;;;7.40;;
19113;SDS011;9689;51.052;13.772;2023-02-28T03:42:27;17.05;;;7.72;;
19113;SDS011;9689;51.052;13.772;2023-02-28T03:47:31;12.77;;;7.10;;
19113;SDS011;9689;51.052;13.772;2023-02-28T03:52:37;16.10;;;7.05;;
19113;SDS011;9689;51.052;13.772;2023-02-28T03:57:45;14.77;;;7.30;;
19113;SDS011;9689;51.052;13.772;2023-02-28T04:02:53;18.27;;;7.65;;
19113;SDS011;9689;51.052;13.772;2023-02-28T04:08:00;15.88;;;7.55;;
19113;SDS011;9689;51.052;13.772;2023-02-28T04:13:04;14.98;;;7.25;;
19113;SDS011;9689;51.052;13.772;2023-02-28T04:18:04;20.20;;;8.65;;
19113;SDS011;9689;51.052;13.772;2023-02-28T04:23:07;18.13;;;8.45;;
19113;SDS011;9689;51.052;13.772;2023-02-28T04:28:08;17.40;;;8.90;;
19113;SDS011;9689;51.052;13.772;2023-02-28T04:33:09;20.27;;;9.15;;
19113;SDS011;9689;51.052;13.772;2023-02-28T04:38:11;21.05;;;8.23;;
19113;SDS011;9689;51.052;13.772;2023-02-28T04:43:12;15.00;;;8.27;;
19113;SDS011;9689;51.052;13.772;2023-02-28T04:48:12;16.00;;;8.30;;
19113;SDS011;9689;51.052;13.772;2023-02-28T04:53:14;19.60;;;9.40;;
19113;SDS011;9689;51.052;13.772;2023-02-28T04:58:15;24.38;;;9.32;;
19113;SDS011;9689;51.052;13.772;2023-02-28T05:03:16;16.38;;;9.00;;
19113;SDS011;9689;51.052;13.772;2023-02-28T05:08:18;21.02;;;9.50;;
19113;SDS011;9689;51.052;13.772;2023-02-28T05:13:19;19.98;;;9.00;;
19113;SDS011;9689;51.052;13.772;2023-02-28T05:18:19;21.95;;;9.88;;
19113;SDS011;9689;51.052;13.772;2023-02-28T05:23:21;17.63;;;9.25;;
19113;SDS011;9689;51.052;13.772;2023-02-28T05:28:23;20.30;;;9.80;;
19113;SDS011;9689;51.052;13.772;2023-02-28T05:33:23;17.98;;;9.63;;
19113;SDS011;9689;51.052;13.772;2023-02-28T05:38:25;18.67;;;9.05;;
19113;SDS011;9689;51.052;13.772;2023-02-28T05:43:26;22.17;;;9.00;;
19113;SDS011;9689;51.052;13.772;2023-02-28T05:48:27;22.08;;;9.73;;
19113;SDS011;9689;51.052;13.772;2023-02-28T05:53:29;25.58;;;10.13;;
19113;SDS011;9689;51.052;13.772;2023-02-28T05:58:30;22.58;;;9.75;;
19113;SDS011;9689;51.052;13.772;2023-02-28T06:03:31;21.83;;;10.52;;
19113;SDS011;9689;51.052;13.772;2023-02-28T06:08:34;24.83;;;10.18;;
19113;SDS011;9689;51.052;13.772;2023-02-28T06:13:34;20.00;;;9.27;;
19113;SDS011;9689;51.052;13.772;2023-02-28T06:18:35;21.15;;;10.25;;
19113;SDS011;9689;51.052;13.772;2023-02-28T06:23:37;22.10;;;10.95;;
19113;SDS011;9689;51.052;13.772;2023-02-28T06:28:38;21.58;;;10.18;;
19113;SDS011;9689;51.052;13.772;2023-02-28T06:33:40;22.10;;;10.38;;
19113;SDS011;9689;51.052;13.772;2023-02-28T06:38:43;21.45;;;10.20;;
19113;SDS011;9689;51.052;13.772;2023-02-28T06:43:47;29.90;;;12.15;;
19113;SDS011;9689;51.052;13.772;2023-02-28T06:48:48;22.05;;;10.02;;
19113;SDS011;9689;51.052;13.772;2023-02-28T06:53:50;24.40;;;10.73;;
19113;SDS011;9689;51.052;13.772;2023-02-28T06:58:51;27.10;;;11.63;;
19113;SDS011;9689;51.052;13.772;2023-02-28T07:03:52;29.35;;;11.13;;
19113;SDS011;9689;51.052;13.772;2023-02-28T07:08:55;18.70;;;9.43;;
19113;SDS011;9689;51.052;13.772;2023-02-28T07:13:56;20.80;;;9.75;;
19113;SDS011;9689;51.052;13.772;2023-02-28T07:18:57;26.35;;;8.93;;
19113;SDS011;9689;51.052;13.772;2023-02-28T07:23:59;22.58;;;10.25;;
19113;SDS011;9689;51.052;13.772;2023-02-28T07:29:00;22.70;;;9.52;;
19113;SDS011;9689;51.052;13.772;2023-02-28T07:34:01;21.42;;;10.23;;
19113;SDS011;9689;51.052;13.772;2023-02-28T07:39:04;20.27;;;9.73;;
19113;SDS011;9689;51.052;13.772;2023-02-28T07:44:04;21.35;;;9.00;;
19113;SDS011;9689;51.052;13.772;2023-02-28T07:49:05;20.92;;;9.70;;
19113;SDS011;9689;51.052;13.772;2023-02-28T07:54:07;17.63;;;9.50;;
19113;SDS011;9689;51.052;13.772;2023-02-28T07:59:08;17.52;;;8.55;;
19113;SDS011;9689;51.052;13.772;2023-02-28T08:04:09;17.90;;;9.35;;
19113;SDS011;9689;51.052;13.772;2023-02-28T08:09:11;21.77;;;9.30;;
19113;SDS011;9689;51.052;13.772;2023-02-28T08:14:12;18.52;;;8.65;;
19113;SDS011;9689;51.052;13.772;2023-02-28T08:19:12;22.33;;;9.52;;
19113;SDS011;9689;51.052;13.772;2023-02-28T08:24:14;24.05;;;9.25;;
19113;SDS011;9689;51.052;13.772;2023-02-28T08:29:16;22.20;;;8.73;;
19113;SDS011;9689;51.052;13.772;2023-02-28T08:34:17;20.25;;;10.38;;
19113;SDS011;9689;51.052;13.772;2023-02-28T08:39:19;16.33;;;8.27;;
19113;SDS011;9689;51.052;13.772;2023-02-28T08:44:20;21.20;;;9.15;;
19113;SDS011;9689;51.052;13.772;2023-02-28T08:49:20;17.27;;;8.60;;
19113;SDS011;9689;51.052;13.772;2023-02-28T08:54:22;20.60;;;8.63;;
19113;SDS011;9689;51.052;13.772;2023-02-28T08:59:23;18.27;;;8.85;;
19113;SDS011;9689;51.052;13.772;2023-02-28T09:04:24;18.60;;;8.82;;
19113;SDS011;9689;51.052;13.772;2023-02-28T09:09:26;19.45;;;8.15;;
19113;SDS011;9689;51.052;13.772;2023-02-28T09:14:27;17.58;;;8.35;;
19113;SDS011;9689;51.052;13.772;2023-02-28T09:19:27;18.85;;;7.88;;
19113;SDS011;9689;51.052;13.772;2023-02-28T09:24:29;18.90;;;8.35;;
19113;SDS011;9689;51.052;13.772;2023-02-28T09:29:32;20.33;;;8.02;;
19113;SDS011;9689;51.052;13.772;2023-02-28T09:34:34;16.15;;;7.47;;
19113;SDS011;9689;51.052;13.772;2023-02-28T09:39:37;19.02;;;7.75;;
19113;SDS011;9689;51.052;13.772;2023-02-28T09:44:38;15.85;;;7.38;;
19113;SDS011;9689;51.052;13.772;2023-02-28T09:49:44;17.20;;;6.55;;
19113;SDS011;9689;51.052;13.772;2023-02-28T09:54:48;15.27;;;6.18;;
19113;SDS011;9689;51.052;13.772;2023-02-28T09:59:51;12.07;;;6.38;;
19113;SDS011;9689;51.052;13.772;2023-02-28T10:05:11;14.90;;;6.75;;
19113;SDS011;9689;51.052;13.772;2023-02-28T10:10:18;14.40;;;5.75;;
19113;SDS011;9689;51.052;13.772;2023-02-28T10:15:23;13.27;;;7.20;;
19113;SDS011;9689;51.052;13.772;2023-02-28T10:20:26;11.80;;;6.35;;
19113;SDS011;9689;51.052;13.772;2023-02-28T10:25:30;14.15;;;6.78;;
19113;SDS011;9689;51.052;13.772;2023-02-28T10:30:31;17.77;;;7.15;;
19113;SDS011;9689;51.052;13.772;2023-02-28T10:35:31;21.58;;;7.75;;
19113;SDS011;9689;51.052;13.772;2023-02-28T10:40:35;13.73;;;6.78;;
19113;SDS011;9689;51.052;13.772;2023-02-28T10:45:36;12.68;;;7.28;;
19113;SDS011;9689;51.052;13.772;2023-02-28T10:50:41;19.30;;;8.10;;
19113;SDS011;9689;51.052;13.772;2023-02-28T10:55:45;17.73;;;7.72;;
19113;SDS011;9689;51.052;13.772;2023-02-28T11:00:57;15.35;;;7.72;;
19113;SDS011;9689;51.052;13.772;2023-02-28T11:06:04;17.65;;;7.82;;
19113;SDS011;9689;51.052;13.772;2023-02-28T11:11:08;14.80;;;7.18;;
19113;SDS011;9689;51.052;13.772;2023-02-28T11:16:10;18.05;;;7.80;;
19113;SDS011;9689;51.052;13.772;2023-02-28T11:21:15;16.08;;;8.23;;
19113;SDS011;9689;51.052;13.772;2023-02-28T11:26:38;18.27;;;8.07;;
19113;SDS011;9689;51.052;13.772;2023-02-28T11:31:40;17.40;;;7.45;;
19113;SDS011;9689;51.052;13.772;2023-02-28T11:36:41;16.30;;;6.75;;
19113;SDS011;9689;51.052;13.772;2023-02-28T11:41:50;12.82;;;6.35;;
19113;SDS011;9689;51.052;13.772;2023-02-28T11:47:06;16.30;;;7.32;;
19113;SDS011;9689;51.052;13.772;2023-02-28T11:52:16;14.15;;;6.88;;
19113;SDS011;9689;51.052;13.772;2023-02-28T11:57:35;15.88;;;7.22;;
19113;SDS011;9689;51.052;13.772;2023-02-28T12:02:53;14.10;;;7.03;;
19113;SDS011;9689;51.052;13.772;2023-02-28T12:08:06;13.15;;;6.18;;
19113;SDS011;9689;51.052;13.772;2023-02-28T12:13:26;13.18;;;6.47;;
19113;SDS011;9689;51.052;13.772;2023-02-28T12:18:39;14.32;;;7.38;;
19113;SDS011;9689;51.052;13.772;2023-02-28T12:23:57;14.02;;;7.80;;
19113;SDS011;9689;51.052;13.772;2023-02-28T12:29:12;14.88;;;7.18;;
19113;SDS011;9689;51.052;13.772;2023-02-28T12:34:19;14.02;;;7.22;;
19113;SDS011;9689;51.052;13.772;2023-02-28T12:39:23;15.55;;;7.95;;
19113;SDS011;9689;51.052;13.772;2023-02-28T12:44:32;16.98;;;8.68;;
19113;SDS011;9689;51.052;13.772;2023-02-28T12:49:38;19.00;;;9.18;;
19113;SDS011;9689;51.052;13.772;2023-02-28T12:54:44;17.73;;;8.27;;
19113;SDS011;9689;51.052;13.772;2023-02-28T12:59:52;19.35;;;8.80;;
19113;SDS011;9689;51.052;13.772;2023-02-28T13:10:39;20.63;;;8.32;;
19113;SDS011;9689;51.052;13.772;2023-02-28T13:15:58;19.88;;;8.95;;
19113;SDS011;9689;51.052;13.772;2023-02-28T13:21:01;21.67;;;9.13;;
19113;SDS011;9689;51.052;13.772;2023-02-28T13:26:02;17.13;;;9.27;;
19113;SDS011;9689;51.052;13.772;2023-02-28T13:31:05;17.52;;;8.90;;
19113;SDS011;9689;51.052;13.772;2023-02-28T13:36:07;20.70;;;9.65;;
19113;SDS011;9689;51.052;13.772;2023-02-28T13:47:19;21.30;;;9.20;;
19113;SDS011;9689;51.052;13.772;2023-02-28T13:52:23;20.25;;;10.13;;
19113;SDS011;9689;51.052;13.772;2023-02-28T13:57:27;19.70;;;9.38;;
19113;SDS011;9689;51.052;13.772;2023-02-28T14:02:51;25.40;;;9.82;;
19113;SDS011;9689;51.052;13.772;2023-02-28T14:08:06;22.85;;;10.10;;
19113;SDS011;9689;51.052;13.772;2023-02-28T14:18:49;20.75;;;10.32;;
19113;SDS011;9689;51.052;13.772;2023-02-28T14:35:03;23.05;;;10.15;;
19113;SDS011;9689;51.052;13.772;2023-02-28T14:40:14;20.95;;;10.13;;
19113;SDS011;9689;51.052;13.772;2023-02-28T14:45:17;17.17;;;9.00;;
19113;SDS011;9689;51.052;13.772;2023-02-28T14:50:21;20.65;;;10.32;;
19113;SDS011;9689;51.052;13.772;2023-02-28T14:55:25;25.48;;;10.25;;
19113;SDS011;9689;51.052;13.772;2023-02-28T15:00:30;19.35;;;10.02;;
19113;SDS011;9689;51.052;13.772;2023-02-28T15:05:34;23.23;;;9.50;;
19113;SDS011;9689;51.052;13.772;2023-02-28T15:10:35;22.08;;;10.20;;
19113;SDS011;9689;51.052;13.772;2023-02-28T15:15:40;26.23;;;10.43;;
19113;SDS011;9689;51.052;13.772;2023-02-28T15:21:02;24.27;;;9.98;;
19113;SDS011;9689;51.052;13.772;2023-02-28T15:26:06;23.85;;;10.15;;
19113;SDS011;9689;51.052;13.772;2023-02-28T15:31:17;24.60;;;10.23;;
19113;SDS011;9689;51.052;13.772;2023-02-28T15:36:25;21.73;;;10.27;;
19113;SDS011;9689;51.052;13.772;2023-02-28T15:41:30;21.33;;;10.32;;
19113;SDS011;9689;51.052;13.772;2023-02-28T15:46:38;20.75;;;10.18;;
19113;SDS011;9689;51.052;13.772;2023-02-28T15:51:40;19.88;;;10.32;;
19113;SDS011;9689;51.052;13.772;2023-02-28T15:56:43;26.30;;;10.40;;
19113;SDS011;9689;51.052;13.772;2023-02-28T16:01:45;19.58;;;10.07;;
19113;SDS011;9689;51.052;13.772;2023-02-28T16:06:53;23.90;;;10.25;;
19113;SDS011;9689;51.052;13.772;2023-02-28T16:12:02;20.75;;;9.90;;
19113;SDS011;9689;51.052;13.772;2023-02-28T16:17:05;19.48;;;9.80;;
19113;SDS011;9689;51.052;13.772;2023-02-28T16:22:09;19.90;;;9.95;;
19113;SDS011;9689;51.052;13.772;2023-02-28T16:27:14;23.83;;;10.52;;
19113;SDS011;9689;51.052;13.772;2023-02-28T16:32:19;25.10;;;10.80;;
19113;SDS011;9689;51.052;13.772;2023-02-28T16:37:21;21.95;;;10.88;;
19113;SDS011;9689;51.052;13.772;2023-02-28T16:42:22;22.50;;;10.18;;
19113;SDS011;9689;51.052;13.772;2023-02-28T16:47:25;22.10;;;11.30;;
19113;SDS011;9689;51.052;13.772;2023-02-28T16:52:27;20.90;;;10.35;;
19113;SDS011;9689;51.052;13.772;2023-02-28T16:57:27;20.83;;;11.15;;
19113;SDS011;9689;51.052;13.772;2023-02-28T17:02:31;21.42;;;11.35;;
19113;SDS011;9689;51.052;13.772;2023-02-28T17:07:33;28.00;;;11.73;;
19113;SDS011;9689;51.052;13.772;2023-02-28T17:12:34;23.33;;;11.15;;
19113;SDS011;9689;51.052;13.772;2023-02-28T17:17:34;25.67;;;11.68;;
19113;SDS011;9689;51.052;13.772;2023-02-28T17:22:38;29.85;;;12.73;;
19113;SDS011;9689;51.052;13.772;2023-02-28T17:27:39;26.17;;;12.68;;
19113;SDS011;9689;51.052;13.772;2023-02-28T17:32:40;26.58;;;12.38;;
19113;SDS011;9689;51.052;13.772;2023-02-28T17:37:42;29.55;;;13.10;;
19113;SDS011;9689;51.052;13.772;2023-02-28T17:42:43;29.83;;;12.95;;
19113;SDS011;9689;51.052;13.772;2023-02-28T17:47:44;35.70;;;14.25;;
19113;SDS011;9689;51.052;13.772;2023-02-28T17:52:49;27.42;;;12.88;;
19113;SDS011;9689;51.052;13.772;2023-02-28T17:57:50;28.50;;;11.38;;
19113;SDS011;9689;51.052;13.772;2023-02-28T18:02:51;30.27;;;12.05;;
19113;SDS011;9689;51.052;13.772;2023-02-28T18:07:53;26.88;;;12.15;;
19113;SDS011;9689;51.052;13.772;2023-02-28T18:12:54;29.55;;;12.68;;
19113;SDS011;9689;51.052;13.772;2023-02-28T18:17:55;25.27;;;11.63;;
19113;SDS011;9689;51.052;13.772;2023-02-28T18:22:57;30.10;;;12.05;;
19113;SDS011;9689;51.052;13.772;2023-02-28T18:27:57;23.48;;;11.68;;
19113;SDS011;9689;51.052;13.772;2023-02-28T18:32:59;24.60;;;12.35;;
19113;SDS011;9689;51.052;13.772;2023-02-28T18:38:03;29.85;;;12.45;;
19113;SDS011;9689;51.052;13.772;2023-02-28T18:43:07;29.52;;;11.93;;
19113;SDS011;9689;51.052;13.772;2023-02-28T18:48:08;25.65;;;11.65;;
19113;SDS011;9689;51.052;13.772;2023-02-28T18:53:10;29.90;;;11.75;;
19113;SDS011;9689;51.052;13.772;2023-02-28T18:58:11;26.70;;;12.45;;
19113;SDS011;9689;51.052;13.772;2023-02-28T19:03:12;25.27;;;11.65;;
19113;SDS011;9689;51.052;13.772;2023-02-28T19:08:14;32.22;;;13.50;;
19113;SDS011;9689;51.052;13.772;2023-02-28T19:13:15;36.38;;;15.10;;
19113;SDS011;9689;51.052;13.772;2023-02-28T19:18:16;30.60;;;13.80;;
19113;SDS011;9689;51.052;13.772;2023-02-28T19:23:18;32.75;;;14.55;;
19113;SDS011;9689;51.052;13.772;2023-02-28T19:28:19;38.13;;;15.25;;
19113;SDS011;9689;51.052;13.772;2023-02-28T19:33:20;36.90;;;17.23;;
19113;SDS011;9689;51.052;13.772;2023-02-28T19:38:22;40.17;;;15.38;;
19113;SDS011;9689;51.052;13.772;2023-02-28T19:43:23;32.97;;;14.88;;
19113;SDS011;9689;51.052;13.772;2023-02-28T19:48:24;39.80;;;16.48;;
19113;SDS011;9689;51.052;13.772;2023-02-28T19:53:28;35.25;;;16.83;;
19113;SDS011;9689;51.052;13.772;2023-02-28T19:58:30;36.05;;;15.93;;
19113;SDS011;9689;51.052;13.772;2023-02-28T20:03:31;34.80;;;17.10;;
19113;SDS011;9689;51.052;13.772;2023-02-28T20:08:33;39.28;;;15.88;;
19113;SDS011;9689;51.052;13.772;2023-02-28T20:13:34;34.88;;;16.48;;
19113;SDS011;9689;51.052;13.772;2023-02-28T20:18:35;35.97;;;17.05;;
19113;SDS011;9689;51.052;13.772;2023-02-28T20:23:38;40.22;;;16.95;;
19113;SDS011;9689;51.052;13.772;2023-02-28T20:28:39;42.58;;;17.42;;
19113;SDS011;9689;51.052;13.772;2023-02-28T20:33:40;48.38;;;19.98;;
19113;SDS011;9689;51.052;13.772;2023-02-28T20:38:46;48.45;;;19.45;;
19113;SDS011;9689;51.052;13.772;2023-02-28T20:43:51;50.17;;;23.05;;
19113;SDS011;9689;51.052;13.772;2023-02-28T20:48:52;49.58;;;20.85;;
19113;SDS011;9689;51.052;13.772;2023-02-28T20:53:55;47.05;;;20.40;;
19113;SDS011;9689;51.052;13.772;2023-02-28T20:58:55;53.78;;;21.38;;
19113;SDS011;9689;51.052;13.772;2023-02-28T21:03:57;45.20;;;21.77;;
19113;SDS011;9689;51.052;13.772;2023-02-28T21:09:00;59.40;;;22.38;;
19113;SDS011;9689;51.052;13.772;2023-02-28T21:14:03;48.47;;;21.40;;
19113;SDS011;9689;51.052;13.772;2023-02-28T21:19:05;44.25;;;21.10;;
19113;SDS011;9689;51.052;13.772;2023-02-28T21:24:09;45.97;;;21.95;;
19113;SDS011;9689;51.052;13.772;2023-02-28T21:29:11;50.55;;;22.92;;
19113;SDS011;9689;51.052;13.772;2023-02-28T21:34:13;45.85;;;21.70;;
19113;SDS011;9689;51.052;13.772;2023-02-28T21:39:18;42.80;;;21.35;;
19113;SDS011;9689;51.052;13.772;2023-02-28T21:44:22;49.88;;;22.50;;
19113;SDS011;9689;51.052;13.772;2023-02-28T21:49:26;42.13;;;20.90;;
19113;SDS011;9689;51.052;13.772;2023-02-28T21:54:28;49.25;;;22.25;;
19113;SDS011;9689;51.052;13.772;2023-02-28T21:59:29;50.42;;;21.58;;
19113;SDS011;9689;51.052;13.772;2023-02-28T22:04:30;47.80;;;22.58;;
19113;SDS011;9689;51.052;13.772;2023-02-28T22:09:32;51.15;;;23.40;;
19113;SDS011;9689;51.052;13.772;2023-02-28T22:14:32;48.78;;;21.90;;
19113;SDS011;9689;51.052;13.772;2023-02-28T22:19:33;50.47;;;22.65;;
19113;SDS011;9689;51.052;13.772;2023-02-28T22:24:36;53.25;;;23.38;;
19113;SDS011;9689;51.052;13.772;2023-02-28T22:29:37;53.80;;;25.83;;
19113;SDS011;9689;51.052;13.772;2023-02-28T22:34:37;51.03;;;23.40;;
19113;SDS011;9689;51.052;13.772;2023-02-28T22:39:40;56.67;;;24.80;;
19113;SDS011;9689;51.052;13.772;2023-02-28T22:44:41;54.38;;;23.23;;
19113;SDS011;9689;51.052;13.772;2023-02-28T22:49:42;49.97;;;22.23;;
19113;SDS011;9689;51.052;13.772;2023-02-28T22:54:44;43.38;;;20.20;;
19113;SDS011;9689;51.052;13.772;2023-02-28T22:59:48;47.42;;;22.38;;
19113;SDS011;9689;51.052;13.772;2023-02-28T23:04:49;42.50;;;21.45;;
19113;SDS011;9689;51.052;13.772;2023-02-28T23:09:51;42.58;;;21.75;;
19113;SDS011;9689;51.052;13.772;2023-02-28T23:14:52;46.17;;;21.25;;
19113;SDS011;9689;51.052;13.772;2023-02-28T23:19:53;44.42;;;20.90;;
19113;SDS011;9689;51.052;13.772;2023-02-28T23:24:55;44.22;;;21.30;;
19113;SDS011;9689;51.052;13.772;2023-02-28T23:29:56;53.47;;;22.48;;
19113;SDS011;9689;51.052;13.772;2023-02-28T23:34:58;52.17;;;22.88;;
19113;SDS011;9689;51.052;13.772;2023-02-28T23:40:00;51.75;;;21.88;;
19113;SDS011;9689;51.052;13.772;2023-02-28T23:45:01;46.72;;;21.90;;
19113;SDS011;9689;51.052;13.772;2023-02-28T23:50:03;44.75;;;21.25;;
19113;SDS011;9689;51.052;13.772;2023-02-28T23:55:06;49.45;;;22.50;;
